NORTHEAST SUFFOLK  -  Freeze Watch Freeze Watch        NORTHWEST SUFFOLK  -  Freeze Watch Freeze Watch        SOUTHEAST SUFFOLK  -  Freeze Watch Freeze Watch        SOUTHWEST SUFFOLK  -  Freeze Watch Freeze Watch      

Active alerts

Northwest Suffolk
  Details for Northwest Suffolk Freeze Watch
Southwest Suffolk
  Details for Southwest Suffolk Freeze Watch
Northeast Suffolk
  Details for Northeast Suffolk Freeze Watch
Southeast Suffolk
  Details for Southeast Suffolk Freeze Watch


WXM80 ListenWXM80 Stop

You find our weather info also at:

UK Metoffice

WeatherCloud

Weather Underground

Northeastern Weather Network

AWEKAS

Citizen Weather Observer Program (CWOP)

HAMweather, WeatherForYou, PWS Weather


Weather Underground History page Text

Daily Summary for March 15, 2016 Units:  English    Metric   Both
« Previous Day
Next Day »
Daily Weekly Monthly Yearly Custom
  High: Low: Average:
Temperature: 53.3 °F 41.9 °F 46.6 °F
Dew Point: 48.0 °F 41.1 °F 44.1 °F
Humidity: 98 % 79 % 91 %
Wind Speed: 16.6 mph 0.0 mph 4.9 mph
Wind Gust: 24.2 mph - -
Wind:- - ENE
Pressure: 29.90 in 29.73 in -
Precipitation: 0.07 in    
Historical Graphs
 
 
Tabular Data for March 15, 2016
Time Temperature Dew Point Pressure Wind Wind Speed Wind Gust Humidity Rainfall Rate (Hourly)
00:03 43.1 °F 42.3 °F 29.90 in ENE 13.1 mph 18.4 mph 97 % 0.07 in
00:08 43.2 °F 42.4 °F 29.90 in ENE 15.5 mph 21.9 mph 97 % 0.06 in
00:13 43.2 °F 42.4 °F 29.89 in ENE 15.5 mph 24.2 mph 97 % 0.04 in
00:19 43.3 °F 42.5 °F 29.89 in East 16.6 mph 21.9 mph 97 % 0.03 in
00:24 43.3 °F 42.5 °F 29.89 in East 13.8 mph 21.9 mph 97 % 0.02 in
00:29 43.3 °F 42.5 °F 29.89 in ENE 13.4 mph 20.7 mph 97 % 0.03 in
00:34 43.4 °F 42.6 °F 29.89 in ENE 11.5 mph 14.0 mph 97 % 0.03 in
00:39 43.2 °F 42.4 °F 29.89 in NE 9.7 mph 13.8 mph 97 % 0.03 in
00:44 43.0 °F 42.2 °F 29.88 in East 12.2 mph 16.1 mph 97 % 0.02 in
00:49 42.8 °F 42.0 °F 29.88 in ENE 12.1 mph 17.3 mph 97 % 0.02 in
00:59 42.5 °F 41.7 °F 29.87 in ENE 11.1 mph 15.0 mph 97 % 0.03 in
01:04 42.5 °F 41.7 °F 29.87 in ENE 10.7 mph 14.0 mph 97 % 0.03 in
01:10 42.4 °F 41.6 °F 29.87 in NE 10.2 mph 13.8 mph 97 % 0.02 in
01:15 42.4 °F 41.6 °F 29.87 in ENE 11.6 mph 15.0 mph 97 % 0.02 in
01:20 42.3 °F 41.5 °F 29.86 in East 10.4 mph 14.0 mph 97 % 0.03 in
01:25 42.3 °F 41.5 °F 29.86 in NE 12.8 mph 18.4 mph 97 % 0.02 in
01:30 42.3 °F 41.5 °F 29.86 in ENE 9.3 mph 13.0 mph 97 % 0.02 in
01:35 42.2 °F 41.4 °F 29.86 in East 11.0 mph 16.1 mph 97 % 0.02 in
01:40 42.1 °F 41.3 °F 29.85 in NE 9.5 mph 12.7 mph 97 % 0.02 in
01:45 42.1 °F 41.3 °F 29.85 in ENE 11.4 mph 16.1 mph 97 % 0.02 in
01:50 42.0 °F 41.2 °F 29.84 in ENE 10.9 mph 16.1 mph 97 % 0.01 in
01:56 42.0 °F 41.2 °F 29.84 in ENE 9.0 mph 17.3 mph 97 % 0.01 in
02:01 42.0 °F 41.2 °F 29.84 in ENE 10.0 mph 12.0 mph 97 % 0.01 in
02:06 42.0 °F 41.2 °F 29.84 in East 10.0 mph 15.0 mph 97 % 0.02 in
02:11 42.0 °F 41.2 °F 29.84 in ENE 10.7 mph 16.1 mph 97 % 0.02 in
02:16 42.0 °F 41.2 °F 29.84 in ENE 9.5 mph 11.5 mph 97 % 0.02 in
02:21 42.0 °F 41.2 °F 29.84 in ENE 9.9 mph 13.8 mph 97 % 0.01 in
02:26 42.0 °F 41.2 °F 29.84 in ENE 9.2 mph 16.0 mph 97 % 0.01 in
02:31 42.0 °F 41.2 °F 29.84 in ENE 8.9 mph 12.7 mph 97 % 0.01 in
02:36 42.0 °F 41.2 °F 29.84 in ENE 8.0 mph 11.5 mph 97 % 0.01 in
02:41 42.0 °F 41.2 °F 29.84 in East 9.7 mph 12.7 mph 97 % 0.01 in
02:47 42.0 °F 41.2 °F 29.83 in ENE 8.5 mph 15.0 mph 97 % 0.01 in
02:52 42.0 °F 41.2 °F 29.83 in NE 5.8 mph 10.4 mph 97 % 0.01 in
02:57 42.0 °F 41.2 °F 29.83 in ENE 8.1 mph 11.5 mph 97 % 0.01 in
03:07 42.0 °F 41.2 °F 29.82 in ENE 9.2 mph 15.0 mph 97 % 0.00 in
03:12 42.0 °F 41.2 °F 29.82 in ENE 9.2 mph 15.0 mph 97 % 0.00 in
03:17 41.9 °F 41.1 °F 29.82 in ENE 7.2 mph 10.4 mph 97 % 0.00 in
03:22 41.9 °F 41.1 °F 29.81 in ENE 8.1 mph 12.0 mph 97 % 0.01 in
03:27 42.0 °F 41.5 °F 29.81 in NE 9.4 mph 12.7 mph 98 % 0.01 in
03:32 42.0 °F 41.5 °F 29.81 in ENE 10.4 mph 15.0 mph 98 % 0.01 in
03:38 42.0 °F 41.5 °F 29.80 in ENE 9.0 mph 15.0 mph 98 % 0.01 in
03:43 42.1 °F 41.6 °F 29.80 in NE 9.9 mph 13.8 mph 98 % 0.01 in
03:48 42.1 °F 41.6 °F 29.80 in NE 7.6 mph 13.8 mph 98 % 0.01 in
03:53 42.2 °F 41.7 °F 29.80 in ENE 12.0 mph 16.1 mph 98 % 0.01 in
03:58 42.1 °F 41.6 °F 29.79 in ENE 10.7 mph 13.8 mph 98 % 0.01 in
04:03 42.2 °F 41.7 °F 29.79 in ENE 10.9 mph 16.1 mph 98 % 0.01 in
04:08 42.2 °F 41.7 °F 29.79 in NE 6.1 mph 8.1 mph 98 % 0.01 in
04:18 42.3 °F 41.8 °F 29.78 in East 8.6 mph 13.8 mph 98 % 0.01 in
04:23 42.3 °F 41.8 °F 29.79 in NE 6.6 mph 12.0 mph 98 % 0.00 in
04:29 42.3 °F 41.8 °F 29.79 in NE 7.5 mph 13.8 mph 98 % 0.00 in
04:34 42.4 °F 41.9 °F 29.79 in NE 4.7 mph 9.2 mph 98 % 0.00 in
04:44 42.4 °F 41.9 °F 29.78 in NE 6.5 mph 10.4 mph 98 % 0.00 in
04:49 42.4 °F 41.9 °F 29.78 in NNE 5.3 mph 9.2 mph 98 % 0.00 in
04:54 42.5 °F 42.0 °F 29.79 in NE 6.0 mph 10.4 mph 98 % 0.00 in
04:59 42.5 °F 42.0 °F 29.79 in ENE 4.0 mph 9.2 mph 98 % 0.00 in
05:04 42.5 °F 42.0 °F 29.79 in NE 3.6 mph 5.8 mph 98 % 0.00 in
05:09 42.5 °F 42.0 °F 29.79 in NE 4.8 mph 8.1 mph 98 % 0.00 in
05:14 42.6 °F 42.1 °F 29.79 in NE 4.9 mph 6.9 mph 98 % 0.00 in
05:20 42.6 °F 42.1 °F 29.78 in NE 5.9 mph 8.1 mph 98 % 0.00 in
05:25 42.6 °F 42.1 °F 29.79 in NE 4.9 mph 6.9 mph 98 % 0.00 in
05:30 42.6 °F 42.1 °F 29.78 in NNE 4.8 mph 6.9 mph 98 % 0.00 in
05:35 42.6 °F 42.1 °F 29.78 in NE 5.7 mph 8.1 mph 98 % 0.00 in
05:40 42.7 °F 42.2 °F 29.78 in NNE 5.0 mph 8.1 mph 98 % 0.00 in
05:45 42.7 °F 42.2 °F 29.78 in NNE 5.3 mph 8.1 mph 98 % 0.00 in
05:50 42.7 °F 42.2 °F 29.78 in NNE 4.4 mph 10.4 mph 98 % 0.00 in
05:55 42.7 °F 42.2 °F 29.78 in NE 4.1 mph 8.1 mph 98 % 0.00 in
06:00 42.7 °F 42.2 °F 29.77 in NE 4.6 mph 6.9 mph 98 % 0.00 in
06:05 42.8 °F 42.3 °F 29.77 in NE 6.5 mph 9.2 mph 98 % 0.00 in
06:11 42.8 °F 42.3 °F 29.77 in NE 4.6 mph 9.0 mph 98 % 0.00 in
06:16 42.8 °F 42.3 °F 29.77 in NE 5.0 mph 6.9 mph 98 % 0.00 in
06:21 42.8 °F 42.3 °F 29.77 in ENE 3.8 mph 5.8 mph 98 % 0.00 in
06:26 42.9 °F 42.4 °F 29.77 in NE 4.9 mph 6.9 mph 98 % 0.00 in
06:31 42.9 °F 42.4 °F 29.77 in NNE 5.7 mph 10.4 mph 98 % 0.00 in
06:41 42.9 °F 42.4 °F 29.77 in NNE 6.8 mph 11.5 mph 98 % 0.00 in
06:46 42.9 °F 42.4 °F 29.77 in NNE 7.4 mph 11.5 mph 98 % 0.00 in
06:51 42.9 °F 42.4 °F 29.77 in NE 7.0 mph 9.2 mph 98 % 0.00 in
06:56 42.9 °F 42.4 °F 29.77 in NNE 10.7 mph 17.3 mph 98 % 0.00 in
07:02 42.9 °F 42.4 °F 29.77 in NE 6.5 mph 11.5 mph 98 % 0.00 in
07:07 42.9 °F 42.4 °F 29.77 in NNE 8.3 mph 12.7 mph 98 % 0.00 in
07:12 42.9 °F 42.4 °F 29.76 in NNE 8.2 mph 12.7 mph 98 % 0.00 in
07:17 42.9 °F 42.4 °F 29.76 in ENE 6.8 mph 12.7 mph 98 % 0.00 in
07:22 42.9 °F 42.4 °F 29.76 in NE 8.2 mph 11.5 mph 98 % 0.00 in
07:27 42.9 °F 42.4 °F 29.77 in NNE 7.1 mph 11.5 mph 98 % 0.00 in
07:32 43.0 °F 42.5 °F 29.77 in NNE 6.0 mph 11.5 mph 98 % 0.00 in
07:37 43.0 °F 42.5 °F 29.76 in ENE 5.9 mph 6.9 mph 98 % 0.00 in
07:42 43.1 °F 42.6 °F 29.77 in NNE 8.5 mph 13.8 mph 98 % 0.00 in
07:47 43.1 °F 42.6 °F 29.77 in NNE 5.6 mph 8.1 mph 98 % 0.00 in
07:52 43.1 °F 42.6 °F 29.77 in North 5.2 mph 8.0 mph 98 % 0.00 in
07:58 43.2 °F 42.7 °F 29.77 in NNE 4.4 mph 9.0 mph 98 % 0.00 in
08:03 43.2 °F 42.7 °F 29.77 in NNE 4.6 mph 8.0 mph 98 % 0.00 in
08:08 43.3 °F 42.8 °F 29.77 in NNE 4.9 mph 6.9 mph 98 % 0.00 in
08:13 43.3 °F 42.8 °F 29.77 in North 3.5 mph 6.0 mph 98 % 0.00 in
08:18 43.4 °F 42.9 °F 29.77 in ENE 3.3 mph 4.0 mph 98 % 0.00 in
08:23 43.4 °F 42.9 °F 29.77 in NE 4.7 mph 7.0 mph 98 % 0.00 in
08:28 43.4 °F 42.9 °F 29.77 in NNE 3.8 mph 8.1 mph 98 % 0.00 in
08:33 43.6 °F 43.1 °F 29.77 in NE 3.7 mph 5.8 mph 98 % 0.00 in
08:38 43.6 °F 43.1 °F 29.78 in North 4.6 mph 6.9 mph 98 % 0.00 in
08:49 43.8 °F 43.3 °F 29.78 in NNE 6.2 mph 8.0 mph 98 % 0.00 in
08:54 43.9 °F 43.4 °F 29.78 in NNE 5.0 mph 9.2 mph 98 % 0.00 in
08:59 43.9 °F 43.4 °F 29.78 in NNE 3.5 mph 10.4 mph 98 % 0.00 in
09:04 44.0 °F 43.5 °F 29.78 in NE 6.0 mph 8.1 mph 98 % 0.00 in
09:09 44.2 °F 43.7 °F 29.78 in NNE 6.4 mph 10.4 mph 98 % 0.00 in
09:14 44.3 °F 43.8 °F 29.77 in NE 6.2 mph 9.0 mph 98 % 0.00 in
09:19 44.5 °F 44.0 °F 29.77 in NNE 6.1 mph 9.0 mph 98 % 0.00 in
09:24 44.6 °F 44.1 °F 29.77 in NE 7.1 mph 12.0 mph 98 % 0.00 in
09:29 44.6 °F 44.1 °F 29.77 in NNE 7.5 mph 9.0 mph 98 % 0.00 in
09:34 44.6 °F 44.1 °F 29.77 in NNE 8.3 mph 11.5 mph 98 % 0.00 in
09:50 44.9 °F 44.1 °F 29.77 in NE 7.6 mph 12.0 mph 97 % 0.00 in
09:55 45.0 °F 44.2 °F 29.77 in NE 7.0 mph 11.5 mph 97 % 0.00 in
10:00 45.1 °F 44.3 °F 29.77 in NNE 7.2 mph 11.5 mph 97 % 0.00 in
10:05 45.2 °F 44.4 °F 29.77 in North 7.7 mph 11.5 mph 97 % 0.00 in
10:11 45.4 °F 44.6 °F 29.77 in NNE 6.5 mph 8.1 mph 97 % 0.00 in
10:16 45.6 °F 44.5 °F 29.77 in North 6.9 mph 11.5 mph 96 % 0.00 in
10:21 45.8 °F 44.7 °F 29.77 in North 7.0 mph 11.5 mph 96 % 0.00 in
10:26 46.0 °F 44.9 °F 29.77 in NNE 5.5 mph 11.5 mph 96 % 0.00 in
10:31 46.1 °F 45.0 °F 29.77 in NNE 5.6 mph 12.0 mph 96 % 0.00 in
10:36 46.1 °F 44.7 °F 29.77 in NE 7.9 mph 10.4 mph 95 % 0.00 in
10:41 46.1 °F 44.5 °F 29.78 in North 5.4 mph 10.4 mph 94 % 0.00 in
10:46 46.1 °F 44.5 °F 29.78 in North 4.6 mph 6.9 mph 94 % 0.00 in
10:51 46.2 °F 44.6 °F 29.78 in NNW 4.7 mph 6.0 mph 94 % 0.00 in
10:56 46.4 °F 44.8 °F 29.78 in NNE 5.3 mph 11.0 mph 94 % 0.00 in
11:02 46.7 °F 45.1 °F 29.78 in NNW 4.8 mph 11.5 mph 94 % 0.00 in
11:07 46.8 °F 45.2 °F 29.78 in North 5.0 mph 8.1 mph 94 % 0.00 in
11:12 47.0 °F 45.1 °F 29.78 in NNE 5.5 mph 9.2 mph 93 % 0.00 in
11:17 47.1 °F 45.2 °F 29.78 in NNE 4.6 mph 8.1 mph 93 % 0.00 in
11:22 47.3 °F 45.4 °F 29.78 in NNE 4.9 mph 8.1 mph 93 % 0.00 in
11:27 47.6 °F 45.7 °F 29.77 in NNE 5.5 mph 10.4 mph 93 % 0.00 in
11:32 47.9 °F 45.7 °F 29.77 in NNE 4.1 mph 6.0 mph 92 % 0.00 in
11:37 48.3 °F 46.1 °F 29.77 in North 5.0 mph 7.0 mph 92 % 0.00 in
11:42 48.7 °F 46.5 °F 29.77 in NNE 4.5 mph 6.9 mph 92 % 0.00 in
11:47 49.1 °F 46.6 °F 29.76 in NNE 5.3 mph 8.1 mph 91 % 0.00 in
11:53 49.3 °F 46.5 °F 29.76 in NNE 6.6 mph 11.5 mph 90 % 0.00 in
11:58 49.6 °F 46.8 °F 29.77 in NNE 5.9 mph 11.5 mph 90 % 0.00 in
12:03 49.8 °F 46.7 °F 29.76 in NNE 4.5 mph 8.1 mph 89 % 0.00 in
12:08 50.0 °F 46.9 °F 29.76 in NNE 5.3 mph 8.1 mph 89 % 0.00 in
12:13 50.1 °F 46.7 °F 29.76 in NNE 5.5 mph 12.0 mph 88 % 0.00 in
12:18 50.2 °F 46.5 °F 29.76 in NNE 7.5 mph 11.5 mph 87 % 0.00 in
12:23 50.1 °F 46.4 °F 29.75 in North 6.5 mph 10.0 mph 87 % 0.00 in
12:28 50.2 °F 46.5 °F 29.76 in NNE 2.6 mph 9.2 mph 87 % 0.00 in
12:33 50.3 °F 46.6 °F 29.76 in ENE 5.0 mph 6.9 mph 87 % 0.00 in
12:38 50.2 °F 46.5 °F 29.76 in NNE 3.4 mph 7.0 mph 87 % 0.00 in
12:44 50.1 °F 46.4 °F 29.76 in NNE 4.4 mph 8.1 mph 87 % 0.00 in
12:49 50.2 °F 46.5 °F 29.76 in NNE 1.6 mph 5.8 mph 87 % 0.00 in
12:54 50.3 °F 46.6 °F 29.76 in NE 3.0 mph 5.8 mph 87 % 0.00 in
12:59 50.3 °F 46.3 °F 29.76 in NE 3.2 mph 4.6 mph 86 % 0.00 in
13:04 50.2 °F 46.2 °F 29.76 in ENE 5.8 mph 10.4 mph 86 % 0.00 in
13:09 50.3 °F 46.3 °F 29.76 in NE 3.6 mph 5.8 mph 86 % 0.00 in
13:14 50.5 °F 46.8 °F 29.76 in North 3.2 mph 5.8 mph 87 % 0.00 in
13:19 50.6 °F 46.6 °F 29.75 in NE 2.7 mph 5.0 mph 86 % 0.00 in
13:24 50.6 °F 46.3 °F 29.75 in NE 2.4 mph 4.6 mph 85 % 0.00 in
13:29 50.6 °F 46.6 °F 29.75 in ENE 4.5 mph 5.0 mph 86 % 0.00 in
13:35 50.6 °F 46.6 °F 29.74 in NE 3.8 mph 6.9 mph 86 % 0.00 in
13:40 50.9 °F 46.9 °F 29.74 in NNE 4.0 mph 6.9 mph 86 % 0.00 in
13:45 51.3 °F 47.3 °F 29.75 in NNE 2.7 mph 4.6 mph 86 % 0.00 in
13:50 51.4 °F 46.7 °F 29.75 in NNE 2.0 mph 3.5 mph 84 % 0.00 in
13:55 51.5 °F 47.1 °F 29.74 in ENE 3.9 mph 6.9 mph 85 % 0.00 in
14:00 51.5 °F 46.8 °F 29.74 in North 4.6 mph 6.9 mph 84 % 0.00 in
14:05 51.7 °F 47.0 °F 29.74 in North 4.7 mph 6.9 mph 84 % 0.00 in
14:10 51.9 °F 47.2 °F 29.74 in NNW 4.2 mph 5.8 mph 84 % 0.00 in
14:15 52.2 °F 47.8 °F 29.73 in North 3.4 mph 6.9 mph 85 % 0.00 in
14:21 52.4 °F 47.4 °F 29.74 in North 3.6 mph 6.9 mph 83 % 0.00 in
14:26 52.5 °F 47.2 °F 29.74 in NNE 2.8 mph 4.6 mph 82 % 0.00 in
14:31 52.5 °F 47.2 °F 29.74 in NE 1.8 mph 3.5 mph 82 % 0.00 in
14:36 52.4 °F 47.1 °F 29.74 in NE 1.7 mph 3.5 mph 82 % 0.00 in
14:41 52.7 °F 47.7 °F 29.74 in NNE 2.0 mph 4.0 mph 83 % 0.00 in
14:46 53.0 °F 48.0 °F 29.74 in North 3.4 mph 4.6 mph 83 % 0.00 in
14:51 53.2 °F 47.8 °F 29.74 in NE 2.4 mph 3.5 mph 82 % 0.00 in
14:56 53.3 °F 47.6 °F 29.74 in North 1.6 mph 3.5 mph 81 % 0.00 in
15:01 53.3 °F 47.3 °F 29.74 in NE 2.9 mph 3.5 mph 80 % 0.00 in
15:06 53.2 °F 47.5 °F 29.74 in ENE 1.5 mph 3.0 mph 81 % 0.00 in
15:12 53.0 °F 46.7 °F 29.74 in ENE 1.8 mph 3.5 mph 79 % 0.00 in
15:17 52.7 °F 46.7 °F 29.74 in Calm   1.2 mph 80 % 0.00 in
15:22 52.6 °F 46.9 °F 29.75 in North 2.0 mph 3.5 mph 81 % 0.00 in
15:27 52.7 °F 47.4 °F 29.75 in North 1.8 mph 3.5 mph 82 % 0.00 in
15:32 52.8 °F 47.8 °F 29.74 in North 1.6 mph 3.5 mph 83 % 0.00 in
15:37 52.8 °F 47.1 °F 29.74 in NNE 1.0 mph 2.3 mph 81 % 0.00 in
15:42 52.8 °F 47.5 °F 29.74 in NNE 0.3 mph 1.2 mph 82 % 0.00 in
15:52 52.8 °F 47.5 °F 29.74 in NNE 2.3 mph 3.5 mph 82 % 0.00 in
15:57 52.7 °F 47.4 °F 29.74 in NE 2.2 mph 3.0 mph 82 % 0.00 in
16:03 52.7 °F 47.4 °F 29.74 in NNE 1.8 mph 3.5 mph 82 % 0.00 in
16:08 52.7 °F 47.7 °F 29.74 in NNE 1.4 mph 4.0 mph 83 % 0.00 in
16:13 52.7 °F 47.0 °F 29.74 in NNE 3.2 mph 5.8 mph 81 % 0.00 in
16:28 52.6 °F 47.3 °F 29.74 in NE 4.7 mph 7.0 mph 82 % 0.00 in
16:33 52.7 °F 47.4 °F 29.74 in NNE 4.4 mph 7.0 mph 82 % 0.00 in
16:38 52.7 °F 47.0 °F 29.75 in NNE 2.6 mph 3.5 mph 81 % 0.00 in
16:43 52.7 °F 47.0 °F 29.75 in North 4.2 mph 5.8 mph 81 % 0.00 in
16:48 52.7 °F 47.4 °F 29.74 in NNE 4.5 mph 5.8 mph 82 % 0.00 in
16:54 52.9 °F 47.6 °F 29.75 in NNE 4.0 mph 8.1 mph 82 % 0.00 in
16:59 53.1 °F 47.7 °F 29.75 in ENE 4.3 mph 6.9 mph 82 % 0.00 in
17:04 53.1 °F 47.4 °F 29.75 in North 1.5 mph 5.8 mph 81 % 0.00 in
17:09 53.1 °F 47.4 °F 29.75 in NE 2.0 mph 3.5 mph 81 % 0.00 in
17:14 53.0 °F 47.3 °F 29.75 in North 1.5 mph 3.5 mph 81 % 0.00 in
17:19 52.7 °F 46.7 °F 29.75 in North 0.5 mph 2.3 mph 80 % 0.00 in
17:24 52.5 °F 46.5 °F 29.75 in NNE 2.2 mph 3.5 mph 80 % 0.00 in
17:29 52.4 °F 46.7 °F 29.75 in NE 1.4 mph 3.5 mph 81 % 0.00 in
17:34 52.1 °F 46.8 °F 29.75 in ENE 1.6 mph 3.5 mph 82 % 0.00 in
17:39 51.9 °F 46.9 °F 29.75 in ENE 0.9 mph 3.5 mph 83 % 0.00 in
17:45 51.8 °F 46.8 °F 29.75 in ENE 1.6 mph 2.3 mph 83 % 0.00 in
17:50 51.7 °F 46.7 °F 29.75 in ENE 1.5 mph 3.5 mph 83 % 0.00 in
17:55 51.6 °F 46.6 °F 29.76 in ENE 1.5 mph 3.5 mph 83 % 0.00 in
18:00 51.4 °F 46.4 °F 29.76 in ENE 1.3 mph 3.5 mph 83 % 0.00 in
18:05 51.2 °F 46.2 °F 29.76 in NE 2.2 mph 4.6 mph 83 % 0.00 in
18:10 51.0 °F 46.0 °F 29.76 in NE 0.8 mph 3.5 mph 83 % 0.00 in
18:15 50.8 °F 45.8 °F 29.76 in ENE 1.3 mph 3.0 mph 83 % 0.00 in
18:20 50.5 °F 45.5 °F 29.76 in ENE 0.6 mph 2.0 mph 83 % 0.00 in
18:25 50.3 °F 45.6 °F 29.76 in ENE 0.4 mph 1.2 mph 84 % 0.00 in
18:30 50.1 °F 45.5 °F 29.76 in ENE 0.8 mph 2.3 mph 84 % 0.00 in
18:36 49.9 °F 45.3 °F 29.76 in ENE 0.4 mph 2.3 mph 84 % 0.00 in
18:41 49.7 °F 45.4 °F 29.76 in ENE 1.7 mph 3.5 mph 85 % 0.00 in
18:46 49.5 °F 45.2 °F 29.75 in ENE 0.4 mph 1.2 mph 85 % 0.00 in
18:51 49.4 °F 45.1 °F 29.76 in ENE 1.2 mph 2.3 mph 85 % 0.00 in
18:56 49.2 °F 44.9 °F 29.75 in Calm   1.2 mph 85 % 0.01 in
19:01 49.0 °F 44.7 °F 29.76 in ENE 1.7 mph 2.3 mph 85 % 0.01 in
19:06 48.9 °F 44.9 °F 29.76 in ENE 1.0 mph 2.3 mph 86 % 0.01 in
19:16 48.6 °F 44.6 °F 29.76 in ENE 1.1 mph 2.3 mph 86 % 0.01 in
19:21 48.4 °F 44.4 °F 29.76 in ENE 0.1 mph 2.3 mph 86 % 0.01 in
19:27 48.2 °F 44.2 °F 29.76 in ENE 1.3 mph 3.5 mph 86 % 0.01 in
19:32 48.0 °F 44.0 °F 29.76 in Calm   1.2 mph 86 % 0.01 in
19:37 47.8 °F 44.1 °F 29.77 in Calm     87 % 0.01 in
19:42 47.7 °F 44.0 °F 29.77 in Calm     87 % 0.01 in
19:47 47.6 °F 43.9 °F 29.77 in ENE 0.8 mph 2.3 mph 87 % 0.01 in
19:52 47.5 °F 43.8 °F 29.77 in Calm   2.3 mph 87 % 0.01 in
20:02 47.2 °F 43.5 °F 29.77 in ENE 0.3 mph 1.2 mph 87 % 0.00 in
20:07 47.0 °F 43.3 °F 29.77 in ENE 0.6 mph 1.2 mph 87 % 0.00 in
20:18 46.8 °F 43.4 °F 29.78 in ENE 0.3 mph 1.2 mph 88 % 0.00 in
20:23 46.6 °F 43.2 °F 29.77 in ENE 0.2 mph 1.2 mph 88 % 0.00 in
20:28 46.5 °F 43.1 °F 29.78 in ENE 0.5 mph 2.3 mph 88 % 0.00 in
20:38 46.2 °F 42.8 °F 29.78 in ENE 0.2 mph 1.2 mph 88 % 0.00 in
20:43 46.1 °F 43.0 °F 29.78 in Calm   1.0 mph 89 % 0.00 in
20:53 45.9 °F 42.8 °F 29.79 in Calm     89 % 0.00 in
20:58 45.8 °F 43.0 °F 29.79 in Calm     90 % 0.00 in
21:03 45.7 °F 42.9 °F 29.79 in ENE 0.4 mph 1.2 mph 90 % 0.00 in
21:09 45.6 °F 42.8 °F 29.79 in Calm   1.2 mph 90 % 0.00 in
21:14 45.6 °F 42.8 °F 29.79 in Calm   1.2 mph 90 % 0.00 in
21:19 45.5 °F 42.7 °F 29.79 in ENE 0.3 mph 1.2 mph 90 % 0.00 in
21:24 45.4 °F 42.9 °F 29.79 in NNE 2.4 mph 3.5 mph 91 % 0.00 in
21:29 45.4 °F 42.9 °F 29.79 in NNE 2.6 mph 3.5 mph 91 % 0.00 in
21:34 45.3 °F 42.8 °F 29.79 in NNE 2.4 mph 3.5 mph 91 % 0.00 in
21:39 45.4 °F 42.9 °F 29.79 in NNE 2.3 mph 8.1 mph 91 % 0.00 in
21:44 45.4 °F 42.9 °F 29.79 in NNE 3.8 mph 4.6 mph 91 % 0.00 in
21:49 45.5 °F 43.3 °F 29.79 in North 5.4 mph 8.1 mph 92 % 0.00 in
21:54 45.7 °F 43.5 °F 29.79 in NNE 6.0 mph 9.2 mph 92 % 0.00 in
22:00 45.9 °F 43.4 °F 29.78 in NE 3.0 mph 5.0 mph 91 % 0.00 in
22:05 45.9 °F 43.4 °F 29.78 in NNE 3.7 mph 4.6 mph 91 % 0.00 in
22:10 45.9 °F 43.1 °F 29.78 in NNE 4.9 mph 8.1 mph 90 % 0.00 in
22:15 45.9 °F 43.1 °F 29.78 in North 4.3 mph 6.0 mph 90 % 0.00 in
22:20 46.0 °F 43.2 °F 29.78 in North 4.5 mph 9.2 mph 90 % 0.00 in
22:25 46.1 °F 43.3 °F 29.78 in NNE 5.3 mph 6.9 mph 90 % 0.00 in
22:30 46.2 °F 43.4 °F 29.79 in NNE 3.7 mph 5.8 mph 90 % 0.00 in
22:40 46.5 °F 43.4 °F 29.79 in North 3.4 mph 8.1 mph 89 % 0.00 in
22:45 46.7 °F 43.6 °F 29.79 in NW 4.2 mph 6.9 mph 89 % 0.00 in
22:51 46.7 °F 43.3 °F 29.79 in NNE 3.3 mph 8.1 mph 88 % 0.00 in
22:56 46.8 °F 43.4 °F 29.79 in NNE 4.0 mph 6.0 mph 88 % 0.00 in
23:01 46.8 °F 43.4 °F 29.79 in North 4.3 mph 6.9 mph 88 % 0.00 in
23:11 46.8 °F 43.4 °F 29.79 in NNW 2.9 mph 3.5 mph 88 % 0.00 in
23:16 46.8 °F 43.4 °F 29.80 in North 2.4 mph 3.5 mph 88 % 0.00 in
23:21 46.8 °F 43.4 °F 29.80 in NNE 3.9 mph 5.8 mph 88 % 0.00 in
23:26 46.8 °F 43.4 °F 29.80 in North 3.3 mph 4.6 mph 88 % 0.00 in
23:31 46.8 °F 43.4 °F 29.80 in NNW 2.5 mph 3.5 mph 88 % 0.00 in
23:36 46.8 °F 43.4 °F 29.80 in North 2.1 mph 4.0 mph 88 % 0.00 in
23:42 46.8 °F 43.4 °F 29.80 in North 1.9 mph 3.5 mph 88 % 0.00 in
23:47 46.9 °F 43.5 °F 29.80 in North 0.9 mph 2.3 mph 88 % 0.00 in
23:52 47.0 °F 43.6 °F 29.80 in North 0.2 mph 3.5 mph 88 % 0.00 in
23:57 47.0 °F 43.6 °F 29.80 in Calm   1.2 mph 88 % 0.00 in
Crab Meadow Weather
Compliments of Weather Underground - 2.75 mb

Script developed by  Jim McMurry - jmcmurry@mwt.net Adapted for the template by  Wim van der Kuil - Leuven-Template.eu

Recycling: In 2006, a record 53.4 percent of the paper consumed in the U.S. was recovered for recycling. Americans recovered an extraordinary 53.5 million tons, averaging 360 pounds per person.